createdAt,value
2018-05-27T00:00:42.838Z,23.8
2018-05-27T00:01:32.999Z,23.8
2018-05-27T00:02:23.943Z,23.8
2018-05-27T00:03:13.181Z,23.8
2018-05-27T00:04:03.985Z,23.8
2018-05-27T00:04:53.230Z,23.8
2018-05-27T00:05:43.873Z,23.8
2018-05-27T00:06:33.297Z,23.8
2018-05-27T00:07:23.429Z,23.8
2018-05-27T00:08:14.036Z,23.8
2018-05-27T00:09:04.373Z,23.8
2018-05-27T00:09:54.143Z,23.8
2018-05-27T00:10:44.065Z,23.8
2018-05-27T00:11:34.017Z,23.8
2018-05-27T00:12:24.537Z,23.7
2018-05-27T00:13:13.874Z,23.7
2018-05-27T00:14:04.847Z,23.7
2018-05-27T00:14:54.215Z,23.8
2018-05-27T00:15:44.849Z,23.8
2018-05-27T00:16:34.972Z,23.7
2018-05-27T00:17:24.697Z,23.7
2018-05-27T00:18:15.021Z,23.7
2018-05-27T00:19:04.832Z,23.7
2018-05-27T00:19:54.613Z,23.8
2018-05-27T00:20:44.922Z,23.7
2018-05-27T00:21:34.809Z,23.7
2018-05-27T00:22:25.404Z,23.7
2018-05-27T00:23:15.463Z,23.7
2018-05-27T00:24:05.490Z,23.7
2018-05-27T00:24:55.124Z,23.7
2018-05-27T00:25:44.021Z,23.7
2018-05-27T00:26:34.654Z,23.7
2018-05-27T00:27:24.914Z,23.7
2018-05-27T00:28:15.849Z,23.7
2018-05-27T00:29:05.068Z,23.7
2018-05-27T00:29:55.984Z,23.7
2018-05-27T00:30:45.181Z,23.7
2018-05-27T00:31:35.778Z,23.7
2018-05-27T00:32:26.149Z,23.7
2018-05-27T00:33:15.406Z,23.7
2018-05-27T00:34:06.034Z,23.8
2018-05-27T00:34:56.061Z,23.8
2018-05-27T00:35:45.636Z,23.8
2018-05-27T00:36:36.504Z,23.8
2018-05-27T00:37:25.957Z,23.8
2018-05-27T00:38:16.324Z,23.8
2018-05-27T00:39:05.855Z,23.8
2018-05-27T00:39:56.438Z,23.8
2018-05-27T00:40:46.490Z,23.8
2018-05-27T00:41:36.573Z,23.8
2018-05-27T00:42:26.096Z,23.8
2018-05-27T00:43:16.410Z,23.8
2018-05-27T00:44:06.610Z,23.8
2018-05-27T00:44:56.578Z,23.8
2018-05-27T00:45:46.909Z,23.8
2018-05-27T00:46:36.950Z,23.8
2018-05-27T00:47:26.176Z,23.8
2018-05-27T00:48:17.378Z,23.8
2018-05-27T00:49:07.457Z,23.8
2018-05-27T00:49:58.205Z,23.7
2018-05-27T00:50:47.323Z,23.8
2018-05-27T00:51:37.687Z,23.8
2018-05-27T00:52:27.725Z,23.7
2018-05-27T00:53:17.156Z,23.7
2018-05-27T00:54:07.559Z,23.8
2018-05-27T00:54:57.635Z,23.7
2018-05-27T00:55:46.813Z,23.7
2018-05-27T00:56:38.003Z,23.7
2018-05-27T00:57:27.251Z,23.7
2018-05-27T00:58:18.135Z,23.7
2018-05-27T00:59:07.624Z,23.7
2018-05-27T00:59:56.395Z,23.7
2018-05-27T01:00:48.049Z,23.7
2018-05-27T01:01:37.288Z,23.7
2018-05-27T01:02:27.650Z,23.7
2018-05-27T01:03:18.532Z,23.7
2018-05-27T01:04:08.281Z,23.7
2018-05-27T01:04:57.612Z,23.7
2018-05-27T01:05:48.475Z,23.7
2018-05-27T01:06:37.968Z,23.7
2018-05-27T01:07:28.518Z,23.7
2018-05-27T01:08:18.968Z,23.7
2018-05-27T01:09:09.014Z,23.7
2018-05-27T01:09:59.053Z,23.7
2018-05-27T01:10:48.830Z,23.7
2018-05-27T01:11:39.190Z,23.7
2018-05-27T01:12:29.456Z,23.7
2018-05-27T01:13:18.734Z,23.6
2018-05-27T01:14:08.519Z,23.6
2018-05-27T01:14:59.188Z,23.6
2018-05-27T01:15:49.003Z,23.6
2018-05-27T01:16:39.578Z,23.6
2018-05-27T01:17:28.496Z,23.6
2018-05-27T01:18:18.885Z,23.6
2018-05-27T01:19:08.948Z,23.6
2018-05-27T01:19:58.987Z,23.6
2018-05-27T01:20:49.606Z,23.6
2018-05-27T01:21:39.670Z,23.6
2018-05-27T01:22:29.421Z,23.6
2018-05-27T01:23:18.937Z,23.6
2018-05-27T01:24:09.576Z,23.6
2018-05-27T01:24:59.065Z,23.6
2018-05-27T01:25:49.684Z,23.6
2018-05-27T01:26:39.715Z,23.6
2018-05-27T01:27:29.812Z,23.6
2018-05-27T01:28:20.153Z,23.6
2018-05-27T01:29:10.511Z,23.6
2018-05-27T01:30:00.578Z,23.6
2018-05-27T01:30:49.780Z,23.6
2018-05-27T01:31:40.421Z,23.6
2018-05-27T01:32:30.222Z,23.6
2018-05-27T01:33:20.290Z,23.6
2018-05-27T01:34:10.122Z,23.6
2018-05-27T01:35:00.398Z,23.6
2018-05-27T01:35:51.043Z,23.6
2018-05-27T01:36:40.505Z,23.6
2018-05-27T01:37:29.185Z,23.6
2018-05-27T01:38:20.347Z,23.6
2018-05-27T01:39:10.523Z,23.6
2018-05-27T01:40:00.510Z,23.6
2018-05-27T01:40:51.381Z,23.6
2018-05-27T01:41:41.487Z,23.6
2018-05-27T01:42:31.574Z,23.6
2018-05-27T01:43:21.071Z,23.6
2018-05-27T01:44:11.124Z,23.6
2018-05-27T01:45:01.719Z,23.6
2018-05-27T01:45:51.785Z,23.6
2018-05-27T01:46:41.884Z,23.6
2018-05-27T01:47:31.089Z,23.6
2018-05-27T01:48:21.162Z,23.6
2018-05-27T01:49:11.480Z,23.6
2018-05-27T01:50:02.156Z,23.6
2018-05-27T01:50:52.164Z,23.6
2018-05-27T01:51:42.256Z,23.6
2018-05-27T01:52:31.700Z,23.6
2018-05-27T01:53:22.038Z,23.6
2018-05-27T01:54:11.584Z,23.6
2018-05-27T01:55:01.654Z,23.6
2018-05-27T01:55:52.070Z,23.6
2018-05-27T01:56:41.815Z,23.6
2018-05-27T01:57:31.877Z,23.6
2018-05-27T01:58:22.761Z,23.6
2018-05-27T01:59:12.782Z,23.6
2018-05-27T02:00:02.634Z,23.6
2018-05-27T02:00:52.934Z,23.6
2018-05-27T02:01:42.439Z,23.6
2018-05-27T02:02:32.806Z,23.6
2018-05-27T02:03:22.903Z,23.6
2018-05-27T02:04:12.946Z,23.6
2018-05-27T02:05:02.406Z,23.6
2018-05-27T02:05:52.515Z,23.6
2018-05-27T02:06:43.241Z,23.6
2018-05-27T02:07:32.598Z,23.6
2018-05-27T02:08:22.956Z,23.6
2018-05-27T02:09:13.063Z,23.6
2018-05-27T02:10:02.799Z,23.6
2018-05-27T02:10:53.440Z,23.6
2018-05-27T02:11:43.247Z,23.6
2018-05-27T02:12:33.285Z,23.6
2018-05-27T02:13:22.791Z,23.6
2018-05-27T02:14:13.425Z,23.6
2018-05-27T02:15:03.483Z,23.6
2018-05-27T02:15:53.248Z,23.6
2018-05-27T02:16:43.907Z,23.6
2018-05-27T02:17:33.708Z,23.6
2018-05-27T02:18:24.032Z,23.6
2018-05-27T02:19:13.253Z,23.6
2018-05-27T02:20:03.608Z,23.6
2018-05-27T02:20:54.242Z,23.6
2018-05-27T02:21:43.730Z,23.6
2018-05-27T02:22:34.362Z,23.6
2018-05-27T02:23:24.417Z,23.6
2018-05-27T02:24:13.900Z,23.6
2018-05-27T02:25:04.284Z,23.6
2018-05-27T02:25:54.375Z,23.6
2018-05-27T02:26:44.102Z,23.6
2018-05-27T02:27:34.739Z,23.6
2018-05-27T02:28:25.105Z,23.6
2018-05-27T02:29:14.357Z,23.6
2018-05-27T02:30:04.962Z,23.6
2018-05-27T02:30:53.895Z,23.6
2018-05-27T02:31:45.110Z,23.6
2018-05-27T02:32:34.886Z,23.6
2018-05-27T02:33:24.920Z,23.6
2018-05-27T02:34:15.298Z,23.6
2018-05-27T02:35:05.067Z,23.6
2018-05-27T02:35:55.812Z,23.6
2018-05-27T02:36:44.672Z,23.6
2018-05-27T02:37:35.643Z,23.6
2018-05-27T02:38:25.285Z,23.6
2018-05-27T02:39:14.799Z,23.6
2018-05-27T02:40:05.739Z,23.6
2018-05-27T02:40:55.505Z,23.6
2018-05-27T02:41:46.236Z,23.6
2018-05-27T02:42:36.169Z,23.6
2018-05-27T02:43:25.422Z,23.6
2018-05-27T02:44:16.036Z,23.6
2018-05-27T02:45:05.273Z,23.6
2018-05-27T02:45:56.227Z,23.6
2018-05-27T02:46:45.821Z,23.6
2018-05-27T02:47:36.171Z,23.6
2018-05-27T02:48:26.208Z,23.6
2018-05-27T02:49:16.406Z,23.6
2018-05-27T02:50:06.821Z,23.6
2018-05-27T02:50:56.016Z,23.6
2018-05-27T02:51:46.192Z,23.5
2018-05-27T02:52:36.823Z,23.6
2018-05-27T02:53:26.463Z,23.6
2018-05-27T02:54:16.793Z,23.6
2018-05-27T02:55:06.654Z,23.5
2018-05-27T02:55:56.081Z,23.6
2018-05-27T02:56:47.126Z,23.5
2018-05-27T02:57:37.370Z,23.6
2018-05-27T02:58:27.318Z,23.5
2018-05-27T02:59:17.157Z,23.5
2018-05-27T03:00:06.399Z,23.5
2018-05-27T03:00:56.530Z,23.5
2018-05-27T03:01:47.084Z,23.6
2018-05-27T03:02:37.610Z,23.5
2018-05-27T03:03:27.801Z,23.5
2018-05-27T03:04:16.683Z,23.5
2018-05-27T03:05:07.962Z,23.5
2018-05-27T03:05:57.430Z,23.5
2018-05-27T03:06:48.075Z,23.5
2018-05-27T03:07:37.741Z,23.5
2018-05-27T03:08:27.607Z,23.5
2018-05-27T03:09:17.768Z,23.5
2018-05-27T03:10:08.336Z,23.5
2018-05-27T03:10:58.350Z,23.5
2018-05-27T03:11:47.840Z,23.5
2018-05-27T03:12:37.626Z,23.5
2018-05-27T03:13:27.752Z,23.5
2018-05-27T03:14:18.624Z,23.5
2018-05-27T03:15:08.414Z,23.5
2018-05-27T03:15:58.181Z,23.5
2018-05-27T03:16:48.582Z,23.5
2018-05-27T03:17:38.007Z,23.5
2018-05-27T03:18:28.621Z,23.5
2018-05-27T03:19:18.718Z,23.6
2018-05-27T03:20:08.793Z,23.5
2018-05-27T03:20:58.793Z,23.5
2018-05-27T03:21:49.188Z,23.5
2018-05-27T03:22:38.711Z,23.5
2018-05-27T03:23:28.481Z,23.5
2018-05-27T03:24:18.815Z,23.5
2018-05-27T03:25:23.551Z,23.5
2018-05-27T03:25:58.656Z,23.5
2018-05-27T03:26:49.292Z,23.5
2018-05-27T03:27:39.661Z,23.5
2018-05-27T03:28:29.441Z,23.5
2018-05-27T03:29:19.196Z,23.5
2018-05-27T03:30:09.367Z,23.4
2018-05-27T03:30:59.751Z,23.4
2018-05-27T03:31:49.141Z,23.4
2018-05-27T03:32:39.786Z,23.5
2018-05-27T03:33:28.952Z,23.5
2018-05-27T03:34:19.312Z,23.4
2018-05-27T03:35:10.204Z,23.5
2018-05-27T03:35:59.212Z,23.5
2018-05-27T03:36:50.852Z,23.5
2018-05-27T03:37:40.159Z,23.5
2018-05-27T03:38:30.190Z,23.5
2018-05-27T03:39:20.506Z,23.5
2018-05-27T03:40:10.037Z,23.5
2018-05-27T03:40:59.856Z,23.5
2018-05-27T03:41:50.159Z,23.5
2018-05-27T03:42:40.209Z,23.5
2018-05-27T03:43:30.022Z,23.5
2018-05-27T03:44:19.895Z,23.5
2018-05-27T03:45:10.172Z,23.5
2018-05-27T03:46:00.450Z,23.5
2018-05-27T03:46:49.702Z,23.5
2018-05-27T03:47:40.925Z,23.5
2018-05-27T03:48:30.974Z,23.5
2018-05-27T03:49:20.457Z,23.5
2018-05-27T03:50:11.109Z,23.5
2018-05-27T03:51:01.134Z,23.5
2018-05-27T03:51:50.651Z,23.5
2018-05-27T03:52:40.151Z,23.5
2018-05-27T03:53:30.807Z,23.5
2018-05-27T03:54:21.172Z,23.4
2018-05-27T03:55:11.192Z,23.5
2018-05-27T03:56:00.639Z,23.5
2018-05-27T03:56:51.633Z,23.5
2018-05-27T03:57:41.061Z,23.5
2018-05-27T03:58:31.757Z,23.5
2018-05-27T03:59:21.812Z,23.5
2018-05-27T04:00:11.282Z,23.5
2018-05-27T04:01:01.935Z,23.5
2018-05-27T04:01:52.275Z,23.5
2018-05-27T04:02:41.179Z,23.5
2018-05-27T04:03:32.416Z,23.6
2018-05-27T04:04:21.620Z,23.5
2018-05-27T04:05:11.682Z,23.5
2018-05-27T04:06:01.771Z,23.5
2018-05-27T04:06:52.690Z,23.5
2018-05-27T04:07:41.636Z,23.5
2018-05-27T04:08:32.536Z,23.5
2018-05-27T04:09:22.606Z,23.5
2018-05-27T04:10:12.410Z,23.5
2018-05-27T04:11:02.723Z,23.5
2018-05-27T04:11:53.009Z,23.5
2018-05-27T04:12:43.107Z,23.5
2018-05-27T04:13:32.906Z,23.6
2018-05-27T04:14:22.668Z,23.6
2018-05-27T04:15:12.751Z,23.5
2018-05-27T04:16:03.109Z,23.5
2018-05-27T04:16:52.876Z,23.5
2018-05-27T04:17:42.898Z,23.5
2018-05-27T04:18:32.730Z,23.5
2018-05-27T04:19:23.083Z,23.5
2018-05-27T04:20:13.673Z,23.5
2018-05-27T04:21:03.737Z,23.5
2018-05-27T04:21:53.253Z,23.5
2018-05-27T04:22:43.323Z,23.5
2018-05-27T04:23:33.969Z,23.6
2018-05-27T04:24:23.985Z,23.5
2018-05-27T04:25:13.219Z,23.5
2018-05-27T04:26:03.583Z,23.5
2018-05-27T04:26:53.626Z,23.5
2018-05-27T04:27:44.245Z,23.5
2018-05-27T04:28:34.602Z,23.6
2018-05-27T04:29:24.464Z,23.6
2018-05-27T04:30:14.503Z,23.6
2018-05-27T04:31:04.248Z,23.6
2018-05-27T04:31:54.601Z,23.6
2018-05-27T04:32:44.347Z,23.6
2018-05-27T04:33:34.452Z,23.6
2018-05-27T04:34:24.230Z,23.6
2018-05-27T04:35:13.973Z,23.6
2018-05-27T04:36:04.583Z,23.6
2018-05-27T04:36:54.432Z,23.6
2018-05-27T04:37:45.015Z,23.6
2018-05-27T04:38:34.540Z,23.7
2018-05-27T04:39:25.163Z,23.7
2018-05-27T04:40:14.964Z,23.7
2018-05-27T04:41:04.441Z,23.7
2018-05-27T04:41:54.796Z,23.7
2018-05-27T04:42:45.438Z,23.7
2018-05-27T04:43:34.879Z,23.7
2018-05-27T04:44:25.004Z,23.7
2018-05-27T04:45:15.353Z,23.7
2018-05-27T04:46:05.392Z,23.7
2018-05-27T04:46:55.751Z,23.7
2018-05-27T04:47:45.259Z,23.7
2018-05-27T04:48:35.642Z,23.7
2018-05-27T04:49:25.388Z,23.7
2018-05-27T04:50:15.719Z,23.7
2018-05-27T04:51:05.514Z,23.7
2018-05-27T04:51:55.585Z,23.7
2018-05-27T04:52:45.635Z,23.7
2018-05-27T04:53:36.308Z,23.7
2018-05-27T04:54:26.377Z,23.7
2018-05-27T04:55:15.294Z,23.7
2018-05-27T04:56:05.891Z,23.7
2018-05-27T04:56:55.962Z,23.7
2018-05-27T04:57:46.058Z,23.7
2018-05-27T04:58:36.067Z,23.7
2018-05-27T04:59:25.882Z,23.7
2018-05-27T05:00:16.520Z,23.7
2018-05-27T05:01:05.986Z,23.7
2018-05-27T05:01:56.325Z,23.7
2018-05-27T05:02:46.664Z,23.7
2018-05-27T05:03:37.044Z,23.7
2018-05-27T05:04:26.842Z,23.7
2018-05-27T05:05:17.141Z,23.7
2018-05-27T05:06:06.348Z,23.7
2018-05-27T05:06:56.997Z,23.8
2018-05-27T05:07:46.508Z,23.8
2018-05-27T05:08:37.403Z,23.8
2018-05-27T05:09:27.302Z,23.8
2018-05-27T05:10:17.246Z,23.8
2018-05-27T05:11:07.328Z,23.8
2018-05-27T05:11:57.182Z,23.8
2018-05-27T05:12:47.765Z,23.8
2018-05-27T05:13:37.263Z,23.8
2018-05-27T05:14:27.855Z,23.8
2018-05-27T05:15:17.638Z,23.8
2018-05-27T05:16:06.875Z,23.8
2018-05-27T05:16:57.756Z,23.7
2018-05-27T05:17:48.127Z,23.8
2018-05-27T05:18:37.320Z,23.8
2018-05-27T05:19:27.150Z,23.8
2018-05-27T05:20:17.794Z,23.8
2018-05-27T05:21:07.624Z,23.8
2018-05-27T05:21:57.732Z,23.8
2018-05-27T05:22:47.174Z,23.8
2018-05-27T05:23:37.861Z,23.8
2018-05-27T05:24:28.774Z,23.8
2018-05-27T05:25:18.124Z,23.8
2018-05-27T05:26:08.737Z,23.8
2018-05-27T05:26:58.569Z,23.8
2018-05-27T05:27:48.786Z,23.8
2018-05-27T05:28:38.128Z,23.8
2018-05-27T05:29:27.891Z,23.8
2018-05-27T05:30:19.051Z,23.8
2018-05-27T05:31:08.837Z,23.8
2018-05-27T05:31:59.208Z,23.8
2018-05-27T05:32:48.453Z,23.8
2018-05-27T05:33:38.236Z,23.8
2018-05-27T05:34:29.211Z,23.8
2018-05-27T05:35:18.958Z,23.8
2018-05-27T05:36:08.404Z,23.8
2018-05-27T05:36:59.076Z,23.8
2018-05-27T05:37:49.433Z,23.8
2018-05-27T05:38:38.870Z,23.8
2018-05-27T05:39:29.516Z,23.8
2018-05-27T05:40:19.300Z,23.8
2018-05-27T05:41:09.660Z,23.8
2018-05-27T05:41:59.690Z,23.8
2018-05-27T05:42:49.518Z,23.8
2018-05-27T05:43:39.100Z,23.8
2018-05-27T05:44:29.564Z,23.8
2018-05-27T05:45:19.461Z,23.8
2018-05-27T05:46:10.021Z,23.8
2018-05-27T05:47:00.106Z,23.8
2018-05-27T05:47:50.435Z,23.8
2018-05-27T05:48:40.540Z,23.8
2018-05-27T05:49:29.843Z,23.8
2018-05-27T05:50:20.628Z,23.8
2018-05-27T05:51:10.748Z,23.8
2018-05-27T05:52:00.825Z,23.8
2018-05-27T05:52:50.808Z,23.8
2018-05-27T05:53:40.903Z,23.8
2018-05-27T05:54:30.503Z,23.8
2018-05-27T05:55:21.017Z,23.8
2018-05-27T05:56:10.237Z,23.8
2018-05-27T05:57:00.837Z,23.8
2018-05-27T05:57:50.098Z,23.8
2018-05-27T05:58:40.686Z,23.8
2018-05-27T05:59:31.075Z,23.8
2018-05-27T06:00:21.414Z,23.8
2018-05-27T06:01:11.632Z,23.8
2018-05-27T06:02:00.662Z,23.8
2018-05-27T06:02:51.363Z,23.9
2018-05-27T06:03:40.850Z,23.9
2018-05-27T06:04:31.158Z,23.9
2018-05-27T06:05:21.275Z,23.9
2018-05-27T06:06:11.009Z,23.9
2018-05-27T06:07:01.633Z,23.9
2018-05-27T06:07:51.257Z,23.9
2018-05-27T06:08:41.359Z,23.9
2018-05-27T06:09:31.970Z,23.9
2018-05-27T06:10:21.687Z,23.9
2018-05-27T06:11:11.527Z,23.9
2018-05-27T06:12:00.722Z,23.9
2018-05-27T06:12:51.014Z,23.9
2018-05-27T06:13:42.199Z,23.9
2018-05-27T06:14:31.974Z,23.9
2018-05-27T06:15:21.578Z,23.9
2018-05-27T06:16:11.901Z,23.9
2018-05-27T06:17:01.389Z,23.9
2018-05-27T06:17:51.988Z,23.9
2018-05-27T06:18:41.186Z,23.9
2018-05-27T06:19:32.050Z,23.9
2018-05-27T06:20:22.413Z,23.9
2018-05-27T06:21:11.620Z,23.9
2018-05-27T06:22:01.475Z,23.9
2018-05-27T06:22:52.610Z,23.9
2018-05-27T06:23:42.919Z,23.9
2018-05-27T06:24:32.730Z,23.9
2018-05-27T06:25:22.788Z,23.9
2018-05-27T06:26:12.589Z,23.9
2018-05-27T06:27:02.066Z,23.9
2018-05-27T06:27:52.763Z,23.9
2018-05-27T06:28:43.338Z,23.9
2018-05-27T06:29:33.669Z,23.9
2018-05-27T06:30:23.496Z,23.9
2018-05-27T06:31:13.510Z,23.9
2018-05-27T06:32:04.359Z,23.9
2018-05-27T06:32:53.655Z,23.9
2018-05-27T06:33:44.055Z,23.9
2018-05-27T06:34:33.812Z,23.9
2018-05-27T06:35:23.331Z,23.9
2018-05-27T06:36:13.643Z,24
2018-05-27T06:37:04.023Z,24
2018-05-27T06:37:54.060Z,24
2018-05-27T06:38:43.558Z,24
2018-05-27T06:39:34.190Z,24.1
2018-05-27T06:40:23.400Z,24.1
2018-05-27T06:41:14.310Z,24.1
2018-05-27T06:42:03.273Z,24.1
2018-05-27T06:42:54.154Z,24.1
2018-05-27T06:43:44.565Z,24.2
2018-05-27T06:44:34.885Z,24.2
2018-05-27T06:45:23.531Z,24.2
2018-05-27T06:46:14.149Z,24.2
2018-05-27T06:47:04.189Z,24.3
2018-05-27T06:47:53.718Z,24.3
2018-05-27T06:48:45.202Z,24.3
2018-05-27T06:49:34.703Z,24.3
2018-05-27T06:50:25.022Z,24.3
2018-05-27T06:51:15.451Z,24.3
2018-05-27T06:52:05.173Z,24.3
2018-05-27T06:52:55.205Z,24.4
2018-05-27T06:53:45.316Z,24.4
2018-05-27T06:54:35.596Z,24.3
2018-05-27T06:55:25.154Z,24.4
2018-05-27T06:56:15.466Z,24.4
2018-05-27T06:57:05.502Z,24.4
2018-05-27T06:57:55.931Z,24.4
2018-05-27T06:58:45.947Z,24.4
2018-05-27T06:59:35.989Z,24.4
2018-05-27T07:00:26.100Z,24.4
2018-05-27T07:01:15.332Z,24.4
2018-05-27T07:02:05.935Z,24.4
2018-05-27T07:02:55.425Z,24.4
2018-05-27T07:03:46.060Z,24.4
2018-05-27T07:04:37.456Z,24.4
2018-05-27T07:05:26.227Z,24.4
2018-05-27T07:06:16.257Z,24.4
2018-05-27T07:07:06.333Z,24.4
2018-05-27T07:07:55.817Z,24.4
2018-05-27T07:08:46.475Z,24.5
2018-05-27T07:09:36.244Z,24.5
2018-05-27T07:10:26.565Z,24.5
2018-05-27T07:11:16.650Z,24.5
2018-05-27T07:12:06.766Z,24.5
2018-05-27T07:12:56.775Z,24.4
2018-05-27T07:13:46.059Z,24.5
2018-05-27T07:14:37.232Z,24.5
2018-05-27T07:15:27.014Z,24.5
2018-05-27T07:16:17.284Z,24.5
2018-05-27T07:17:07.490Z,24.5
2018-05-27T07:17:56.992Z,24.5
2018-05-27T07:18:46.969Z,24.5
2018-05-27T07:19:37.326Z,24.5
2018-05-27T07:20:26.851Z,24.5
2018-05-27T07:21:17.493Z,24.5
2018-05-27T07:22:06.949Z,24.5
2018-05-27T07:22:57.909Z,24.4
2018-05-27T07:23:47.645Z,24.4
2018-05-27T07:24:37.984Z,24.4
2018-05-27T07:25:27.241Z,24.4
2018-05-27T07:26:17.237Z,24.4
2018-05-27T07:27:09.559Z,24.4
2018-05-27T07:27:59.946Z,24.5
2018-05-27T07:28:50.329Z,24.4
2018-05-27T07:29:39.762Z,24.5
2018-05-27T07:30:30.421Z,24.4
2018-05-27T07:31:19.952Z,24.5
2018-05-27T07:32:10.068Z,24.5
2018-05-27T07:33:00.594Z,24.5
2018-05-27T07:33:49.488Z,24.5
2018-05-27T07:34:40.783Z,24.5
2018-05-27T07:35:30.771Z,24.5
2018-05-27T07:36:18.011Z,24.5
2018-05-27T07:37:08.739Z,24.5
2018-05-27T07:37:58.747Z,24.5
2018-05-27T07:38:49.126Z,24.5
2018-05-27T07:39:38.612Z,24.5
2018-05-27T07:40:28.674Z,24.5
2018-05-27T07:41:18.733Z,24.6
2018-05-27T07:42:08.531Z,24.6
2018-05-27T07:42:58.563Z,24.6
2018-05-27T07:43:48.071Z,24.6
2018-05-27T07:44:39.588Z,24.5
2018-05-27T07:45:29.071Z,24.4
2018-05-27T07:46:19.441Z,24.4
2018-05-27T07:47:09.203Z,24.4
2018-05-27T07:47:59.550Z,24.4
2018-05-27T07:48:49.313Z,24.4
2018-05-27T07:49:39.674Z,24.4
2018-05-27T07:50:29.795Z,24.4
2018-05-27T07:51:19.566Z,24.4
2018-05-27T07:52:09.900Z,24.4
2018-05-27T07:52:59.932Z,24.4
2018-05-27T07:53:49.732Z,24.4
2018-05-27T07:54:40.032Z,24.4
2018-05-27T07:55:29.660Z,24.4
2018-05-27T07:56:19.639Z,24.4
2018-05-27T07:57:10.061Z,24.5
2018-05-27T07:57:59.838Z,24.5
2018-05-27T07:58:49.561Z,24.6
2018-05-27T07:59:40.439Z,24.6
2018-05-27T08:00:30.550Z,24.6
2018-05-27T08:01:20.055Z,24.6
2018-05-27T08:02:10.685Z,24.6
2018-05-27T08:03:00.405Z,24.6
2018-05-27T08:03:51.059Z,24.6
2018-05-27T08:04:40.855Z,24.6
2018-05-27T08:05:30.633Z,24.6
2018-05-27T08:06:20.956Z,24.7
2018-05-27T08:07:11.689Z,24.6
2018-05-27T08:08:00.822Z,24.6
2018-05-27T08:08:51.480Z,24.6
2018-05-27T08:09:40.944Z,24.5
2018-05-27T08:10:31.051Z,24.5
2018-05-27T08:11:21.642Z,24.5
2018-05-27T08:12:11.729Z,24.5
2018-05-27T08:13:00.643Z,24.5
2018-05-27T08:13:50.963Z,24.5
2018-05-27T08:14:41.699Z,24.5
2018-05-27T08:15:31.729Z,24.4
2018-05-27T08:16:21.776Z,24.4
2018-05-27T08:17:11.840Z,24.4
2018-05-27T08:18:01.013Z,24.4
2018-05-27T08:18:51.965Z,24.5
2018-05-27T08:19:40.938Z,24.4
2018-05-27T08:20:31.786Z,24.4
2018-05-27T08:21:21.598Z,24.4
2018-05-27T08:22:12.526Z,24.4
2018-05-27T08:23:01.453Z,24.4
2018-05-27T08:23:51.799Z,24.5
2018-05-27T08:24:42.429Z,24.6
2018-05-27T08:25:32.201Z,24.6
2018-05-27T08:26:22.096Z,24.6
2018-05-27T08:27:12.369Z,24.6
2018-05-27T08:28:02.474Z,24.6
2018-05-27T08:28:52.479Z,24.6
2018-05-27T08:29:43.082Z,24.6
2018-05-27T08:30:32.911Z,24.6
2018-05-27T08:31:22.747Z,24.5
2018-05-27T08:32:12.443Z,24.5
2018-05-27T08:33:03.080Z,24.5
2018-05-27T08:33:52.291Z,24.5
2018-05-27T08:34:43.235Z,24.6
2018-05-27T08:35:33.540Z,24.6
2018-05-27T08:36:23.327Z,24.6
2018-05-27T08:37:12.847Z,24.6
2018-05-27T08:38:03.219Z,24.6
2018-05-27T08:38:52.137Z,24.7
2018-05-27T08:39:43.597Z,24.7
2018-05-27T08:40:33.928Z,24.7
2018-05-27T08:41:23.695Z,24.7
2018-05-27T08:42:13.535Z,24.7
2018-05-27T08:43:03.909Z,24.7
2018-05-27T08:43:53.362Z,24.7
2018-05-27T08:44:43.800Z,24.8
2018-05-27T08:45:36.027Z,24.8
2018-05-27T08:46:25.504Z,24.7
2018-05-27T08:47:15.917Z,24.7
2018-05-27T08:48:05.681Z,24.7
2018-05-27T08:48:55.386Z,24.7
2018-05-27T08:49:46.078Z,24.7
2018-05-27T08:50:36.099Z,24.8
2018-05-27T08:51:25.915Z,24.8
2018-05-27T08:52:15.959Z,24.8
2018-05-27T08:53:06.307Z,24.8
2018-05-27T08:53:56.676Z,24.8
2018-05-27T08:54:45.926Z,24.8
2018-05-27T08:55:36.859Z,24.8
2018-05-27T08:56:27.168Z,24.8
2018-05-27T08:57:16.685Z,24.9
2018-05-27T08:58:07.015Z,24.9
2018-05-27T08:58:56.764Z,24.8
2018-05-27T08:59:46.432Z,24.8
2018-05-27T09:00:36.085Z,24.8
2018-05-27T09:01:27.819Z,24.8
2018-05-27T09:02:16.994Z,24.8
2018-05-27T09:03:07.392Z,24.8
2018-05-27T09:03:56.945Z,24.8
2018-05-27T09:04:45.807Z,24.8
2018-05-27T09:05:37.890Z,24.8
2018-05-27T09:06:27.376Z,24.7
2018-05-27T09:07:17.400Z,24.6
2018-05-27T09:08:06.617Z,24.6
2018-05-27T09:08:57.355Z,24.6
2018-05-27T09:09:47.426Z,24.6
2018-05-27T09:10:37.968Z,24.7
2018-05-27T09:11:28.320Z,24.7
2018-05-27T09:12:17.290Z,24.7
2018-05-27T09:13:07.908Z,24.7
2018-05-27T09:13:57.699Z,24.7
2018-05-27T09:14:48.305Z,24.7
2018-05-27T09:15:38.438Z,24.7
2018-05-27T09:16:27.577Z,24.7
2018-05-27T09:17:18.515Z,24.7
2018-05-27T09:18:07.990Z,24.7
2018-05-27T09:18:57.820Z,24.7
2018-05-27T09:19:48.231Z,24.7
2018-05-27T09:20:38.490Z,24.7
2018-05-27T09:21:28.488Z,24.7
2018-05-27T09:22:18.322Z,24.7
2018-05-27T09:23:08.622Z,24.8
2018-05-27T09:23:58.770Z,24.8
2018-05-27T09:24:49.068Z,24.8
2018-05-27T09:25:38.357Z,24.8
2018-05-27T09:26:29.282Z,24.9
2018-05-27T09:27:19.275Z,24.8
2018-05-27T09:28:08.889Z,24.8
2018-05-27T09:28:57.464Z,24.8
2018-05-27T09:29:49.205Z,24.9
2018-05-27T09:30:37.539Z,24.9
2018-05-27T09:31:29.659Z,24.8
2018-05-27T09:32:19.406Z,24.9
2018-05-27T09:33:09.764Z,24.9
2018-05-27T09:33:59.584Z,24.9
2018-05-27T09:34:48.501Z,24.9
2018-05-27T09:35:39.068Z,24.9
2018-05-27T09:36:30.007Z,24.9
2018-05-27T09:37:20.102Z,24.9
2018-05-27T09:38:09.570Z,24.8
2018-05-27T09:38:59.623Z,24.8
2018-05-27T09:39:49.689Z,24.8
2018-05-27T09:40:39.739Z,24.8
2018-05-27T09:41:30.709Z,24.7
2018-05-27T09:42:20.503Z,24.7
2018-05-27T09:43:10.501Z,24.8
2018-05-27T09:44:00.586Z,24.8
2018-05-27T09:44:50.363Z,24.8
2018-05-27T09:45:40.816Z,24.7
2018-05-27T09:46:30.795Z,24.8
2018-05-27T09:47:20.114Z,24.8
2018-05-27T09:48:10.160Z,24.8
2018-05-27T09:49:00.390Z,24.8
2018-05-27T09:49:50.728Z,24.8
2018-05-27T09:50:40.708Z,24.7
2018-05-27T09:51:31.493Z,24.8
2018-05-27T09:52:20.913Z,24.8
2018-05-27T09:53:11.002Z,24.8
2018-05-27T09:54:00.485Z,24.8
2018-05-27T09:54:51.134Z,24.8
2018-05-27T09:55:40.608Z,24.8
2018-05-27T09:56:30.970Z,24.8
2018-05-27T09:57:21.075Z,24.8
2018-05-27T09:58:11.388Z,24.7
2018-05-27T09:59:02.002Z,24.7
2018-05-27T09:59:51.242Z,24.7
2018-05-27T10:00:41.330Z,24.7
2018-05-27T10:01:31.662Z,24.7
2018-05-27T10:02:21.442Z,24.7
2018-05-27T10:03:10.972Z,24.8
2018-05-27T10:04:02.157Z,24.8
2018-05-27T10:04:51.955Z,24.8
2018-05-27T10:05:42.297Z,24.8
2018-05-27T10:06:31.555Z,24.8
2018-05-27T10:07:21.854Z,24.8
2018-05-27T10:08:11.634Z,24.8
2018-05-27T10:09:01.672Z,24.8
2018-05-27T10:09:52.567Z,24.8
2018-05-27T10:10:42.362Z,24.8
2018-05-27T10:11:32.227Z,24.8
2018-05-27T10:12:21.650Z,24.8
2018-05-27T10:13:12.547Z,24.8
2018-05-27T10:14:02.675Z,24.8
2018-05-27T10:14:52.384Z,24.8
2018-05-27T10:15:43.328Z,24.7
2018-05-27T10:16:32.010Z,24.8
2018-05-27T10:17:22.682Z,24.8
2018-05-27T10:18:13.299Z,24.8
2018-05-27T10:19:03.441Z,24.9
2018-05-27T10:19:53.654Z,24.9
2018-05-27T10:20:43.700Z,24.9
2018-05-27T10:21:33.542Z,24.8
2018-05-27T10:22:23.849Z,24.8
2018-05-27T10:23:13.069Z,24.8
2018-05-27T10:24:03.172Z,24.8
2018-05-27T10:24:53.213Z,24.8
2018-05-27T10:25:43.851Z,24.8
2018-05-27T10:26:33.031Z,24.8
2018-05-27T10:27:24.276Z,24.8
2018-05-27T10:28:13.206Z,24.8
2018-05-27T10:29:04.397Z,24.8
2018-05-27T10:29:54.123Z,24.9
2018-05-27T10:30:44.511Z,24.9
2018-05-27T10:31:33.412Z,24.9
2018-05-27T10:32:24.660Z,24.9
2018-05-27T10:33:13.571Z,24.9
2018-05-27T10:34:04.491Z,24.8
2018-05-27T10:34:53.460Z,24.8
2018-05-27T10:35:44.620Z,24.8
2018-05-27T10:36:34.973Z,24.8
2018-05-27T10:37:25.024Z,24.8
2018-05-27T10:38:13.673Z,24.8
2018-05-27T10:39:05.129Z,24.8
2018-05-27T10:39:54.393Z,24.8
2018-05-27T10:40:44.428Z,24.8
2018-05-27T10:41:34.767Z,24.7
2018-05-27T10:42:24.535Z,24.8
2018-05-27T10:43:14.123Z,24.7
2018-05-27T10:44:05.252Z,24.7
2018-05-27T10:44:54.550Z,24.8
2018-05-27T10:45:44.932Z,24.8
2018-05-27T10:46:35.177Z,24.8
2018-05-27T10:47:23.406Z,24.8
2018-05-27T10:48:13.645Z,24.8
2018-05-27T10:49:04.021Z,24.8
2018-05-27T10:49:54.058Z,24.8
2018-05-27T10:50:43.795Z,24.8
2018-05-27T10:51:35.350Z,24.8
2018-05-27T10:52:25.883Z,24.8
2018-05-27T10:53:15.989Z,24.8
2018-05-27T10:54:05.722Z,24.8
2018-05-27T10:54:56.057Z,24.8
2018-05-27T10:55:45.603Z,24.8
2018-05-27T10:56:35.932Z,24.8
2018-05-27T10:57:26.590Z,24.8
2018-05-27T10:58:16.062Z,24.8
2018-05-27T10:59:06.403Z,24.8
2018-05-27T10:59:57.344Z,24.8
2018-05-27T11:00:45.459Z,24.8
2018-05-27T11:01:37.074Z,24.8
2018-05-27T11:02:26.691Z,24.8
2018-05-27T11:03:16.487Z,24.8
2018-05-27T11:04:06.241Z,24.8
2018-05-27T11:04:56.313Z,24.8
2018-05-27T11:05:47.906Z,24.8
2018-05-27T11:06:37.013Z,24.8